createdAt,value
2017-01-25T00:00:51.680Z,0
2017-01-25T00:02:02.642Z,0
2017-01-25T00:03:13.364Z,0
2017-01-25T00:04:24.089Z,0
2017-01-25T00:05:34.847Z,0
2017-01-25T00:06:45.579Z,0
2017-01-25T00:07:56.326Z,0
2017-01-25T00:09:07.072Z,0
2017-01-25T00:10:17.818Z,0
2017-01-25T00:11:28.563Z,0
2017-01-25T00:12:39.309Z,0
2017-01-25T00:13:50.034Z,0
2017-01-25T00:15:00.758Z,0
2017-01-25T00:16:11.497Z,0
2017-01-25T00:17:22.220Z,0
2017-01-25T00:18:32.946Z,0
2017-01-25T00:19:43.686Z,0
2017-01-25T00:20:54.404Z,0
2017-01-25T00:22:05.137Z,0
2017-01-25T00:23:15.899Z,0
2017-01-25T00:24:26.628Z,0
2017-01-25T00:25:37.613Z,0
2017-01-25T00:26:48.334Z,0
2017-01-25T00:27:59.040Z,0
2017-01-25T00:29:09.764Z,0
2017-01-25T00:30:20.487Z,0
2017-01-25T00:31:31.221Z,0
2017-01-25T00:32:41.967Z,0
2017-01-25T00:33:52.688Z,0
2017-01-25T00:35:03.434Z,0
2017-01-25T00:36:14.159Z,0
2017-01-25T00:37:24.865Z,0
2017-01-25T00:38:35.577Z,0
2017-01-25T00:39:46.274Z,0
2017-01-25T00:40:56.976Z,0
2017-01-25T00:42:07.697Z,0
2017-01-25T00:43:18.431Z,0
2017-01-25T00:44:29.156Z,0
2017-01-25T00:45:39.897Z,0
2017-01-25T00:46:50.653Z,0
2017-01-25T00:48:01.364Z,0
2017-01-25T00:49:12.107Z,0
2017-01-25T00:50:22.856Z,0
2017-01-25T00:51:33.607Z,0
2017-01-25T00:52:44.334Z,0
2017-01-25T00:53:55.065Z,0
2017-01-25T00:55:06.084Z,0
2017-01-25T00:56:16.811Z,0
2017-01-25T00:57:27.542Z,0
2017-01-25T00:58:38.275Z,0
2017-01-25T00:59:48.996Z,0
2017-01-25T01:00:59.967Z,0
2017-01-25T01:02:10.717Z,0
2017-01-25T01:03:21.448Z,0
2017-01-25T01:04:32.188Z,0
2017-01-25T01:05:42.914Z,0
2017-01-25T01:06:53.630Z,0
2017-01-25T01:08:04.368Z,0
2017-01-25T01:09:15.119Z,0
2017-01-25T01:10:25.864Z,0
2017-01-25T01:11:36.581Z,0
2017-01-25T01:12:47.306Z,0
2017-01-25T01:13:58.047Z,0
2017-01-25T01:15:08.793Z,0
2017-01-25T01:16:19.515Z,0
2017-01-25T01:17:30.222Z,0
2017-01-25T01:18:40.946Z,0
2017-01-25T01:19:51.703Z,0
2017-01-25T01:21:02.435Z,0
2017-01-25T01:22:13.170Z,0
2017-01-25T01:23:23.895Z,0
2017-01-25T01:24:34.864Z,0
2017-01-25T01:25:45.586Z,0
2017-01-25T01:26:56.320Z,0
2017-01-25T01:28:07.053Z,0
2017-01-25T01:29:17.796Z,0
2017-01-25T01:30:28.553Z,0
2017-01-25T01:31:39.262Z,0
2017-01-25T01:32:49.975Z,0
2017-01-25T01:34:00.755Z,0
2017-01-25T01:35:11.462Z,0
2017-01-25T01:36:22.213Z,0
2017-01-25T01:37:33.305Z,0
2017-01-25T01:38:44.023Z,0
2017-01-25T01:39:54.760Z,0
2017-01-25T01:41:05.484Z,0
2017-01-25T01:42:16.216Z,0
2017-01-25T01:43:26.941Z,0
2017-01-25T01:44:37.672Z,0
2017-01-25T01:45:48.390Z,0
2017-01-25T01:46:59.120Z,0
2017-01-25T01:48:09.831Z,0
2017-01-25T01:49:20.541Z,0
2017-01-25T01:50:31.260Z,0
2017-01-25T01:51:41.959Z,0
2017-01-25T01:52:52.674Z,0
2017-01-25T01:54:03.651Z,0
2017-01-25T01:55:14.358Z,0
2017-01-25T01:56:25.065Z,0
2017-01-25T01:57:35.762Z,0
2017-01-25T01:58:46.488Z,0
2017-01-25T01:59:57.453Z,0
2017-01-25T02:01:08.171Z,0
2017-01-25T02:02:18.909Z,0
2017-01-25T02:03:29.642Z,0
2017-01-25T02:04:40.369Z,0
2017-01-25T02:05:51.085Z,0
2017-01-25T02:07:01.780Z,0
2017-01-25T02:08:12.517Z,0
2017-01-25T02:09:23.249Z,0
2017-01-25T02:10:33.944Z,0
2017-01-25T02:11:44.665Z,0
2017-01-25T02:12:55.386Z,0
2017-01-25T02:14:06.122Z,0
2017-01-25T02:15:16.827Z,0
2017-01-25T02:16:27.548Z,0
2017-01-25T02:17:38.498Z,0
2017-01-25T02:18:49.214Z,0
2017-01-25T02:19:59.960Z,0
2017-01-25T02:21:10.704Z,0
2017-01-25T02:22:21.424Z,0
2017-01-25T02:23:32.191Z,0
2017-01-25T02:24:43.268Z,0
2017-01-25T02:25:53.990Z,0
2017-01-25T02:27:04.702Z,0
2017-01-25T02:28:15.808Z,0
2017-01-25T02:29:26.541Z,0
2017-01-25T02:30:37.276Z,0
2017-01-25T02:31:47.997Z,0
2017-01-25T02:32:58.729Z,0
2017-01-25T02:34:09.855Z,0
2017-01-25T02:35:20.958Z,0
2017-01-25T02:36:31.697Z,0
2017-01-25T02:37:42.439Z,0
2017-01-25T02:38:53.173Z,0
2017-01-25T02:40:03.886Z,0
2017-01-25T02:41:14.630Z,0
2017-01-25T02:42:25.357Z,0
2017-01-25T02:43:36.085Z,0
2017-01-25T02:44:46.877Z,0
2017-01-25T02:45:57.598Z,0
2017-01-25T02:47:08.296Z,0
2017-01-25T02:48:19.015Z,0
2017-01-25T02:49:29.731Z,0
2017-01-25T02:50:40.446Z,0
2017-01-25T02:51:51.179Z,0
2017-01-25T02:53:02.141Z,0
2017-01-25T02:54:12.865Z,0
2017-01-25T02:55:23.586Z,0
2017-01-25T02:56:34.332Z,0
2017-01-25T02:57:45.031Z,0
2017-01-25T02:58:55.753Z,0
2017-01-25T03:00:06.475Z,0
2017-01-25T03:01:17.186Z,0
2017-01-25T03:02:27.922Z,0
2017-01-25T03:03:38.654Z,0
2017-01-25T03:04:49.649Z,0
2017-01-25T03:06:00.382Z,0
2017-01-25T03:07:11.160Z,0
2017-01-25T03:08:21.913Z,0
2017-01-25T03:09:32.634Z,0
2017-01-25T03:10:43.362Z,0
2017-01-25T03:11:54.073Z,0
2017-01-25T03:13:04.806Z,0
2017-01-25T03:14:15.527Z,0
2017-01-25T03:15:26.218Z,0
2017-01-25T03:16:36.960Z,0
2017-01-25T03:17:47.669Z,0
2017-01-25T03:18:58.389Z,0
2017-01-25T03:20:09.108Z,0
2017-01-25T03:21:19.825Z,0
2017-01-25T03:22:30.525Z,0
2017-01-25T03:23:41.265Z,0
2017-01-25T03:24:52.007Z,0
2017-01-25T03:26:02.754Z,0
2017-01-25T03:27:13.499Z,0
2017-01-25T03:28:24.241Z,0
2017-01-25T03:29:34.966Z,0
2017-01-25T03:30:45.712Z,0
2017-01-25T03:31:56.438Z,0
2017-01-25T03:33:07.183Z,0
2017-01-25T03:34:17.897Z,0
2017-01-25T03:35:28.643Z,0
2017-01-25T03:36:39.350Z,0
2017-01-25T03:37:50.092Z,0
2017-01-25T03:39:00.792Z,0
2017-01-25T03:40:11.741Z,0
2017-01-25T03:41:22.484Z,0
2017-01-25T03:42:33.201Z,0
2017-01-25T03:43:43.922Z,0
2017-01-25T03:44:54.636Z,0
2017-01-25T03:46:05.343Z,0
2017-01-25T03:47:16.056Z,0
2017-01-25T03:48:26.781Z,0
2017-01-25T03:49:37.507Z,0
2017-01-25T03:50:48.204Z,0
2017-01-25T03:51:58.921Z,0
2017-01-25T03:53:10.015Z,0
2017-01-25T03:54:20.728Z,0
2017-01-25T03:55:31.438Z,0
2017-01-25T03:56:42.175Z,0
2017-01-25T03:57:53.133Z,0
2017-01-25T03:59:04.277Z,0
2017-01-25T04:00:15.000Z,0
2017-01-25T04:01:25.730Z,0
2017-01-25T04:02:36.450Z,0
2017-01-25T04:03:47.181Z,0
2017-01-25T04:04:57.893Z,0
2017-01-25T04:06:08.614Z,0
2017-01-25T04:07:19.363Z,0
2017-01-25T04:08:30.091Z,0
2017-01-25T04:09:40.805Z,0
2017-01-25T04:10:51.558Z,0
2017-01-25T04:12:02.282Z,0
2017-01-25T04:13:13.003Z,0
2017-01-25T04:14:23.736Z,0
2017-01-25T04:15:34.460Z,0
2017-01-25T04:16:45.207Z,0
2017-01-25T04:17:55.926Z,0
2017-01-25T04:19:06.657Z,0
2017-01-25T04:20:17.381Z,0
2017-01-25T04:21:28.372Z,0
2017-01-25T04:22:39.121Z,0
2017-01-25T04:23:49.853Z,0
2017-01-25T04:25:00.604Z,0
2017-01-25T04:26:11.305Z,0
2017-01-25T04:27:22.399Z,0
2017-01-25T04:28:33.125Z,0
2017-01-25T04:29:43.847Z,0
2017-01-25T04:30:54.579Z,0
2017-01-25T04:32:05.305Z,0
2017-01-25T04:33:16.024Z,0
2017-01-25T04:34:26.743Z,0
2017-01-25T04:35:37.488Z,0
2017-01-25T04:36:48.234Z,0
2017-01-25T04:37:58.938Z,0
2017-01-25T04:39:09.668Z,0
2017-01-25T04:40:20.384Z,0
2017-01-25T04:41:31.104Z,0
2017-01-25T04:42:41.839Z,0
2017-01-25T04:43:52.586Z,0
2017-01-25T04:45:03.289Z,0
2017-01-25T04:46:14.015Z,0
2017-01-25T04:47:24.734Z,0
2017-01-25T04:48:35.457Z,0
2017-01-25T04:49:46.174Z,0
2017-01-25T04:50:57.151Z,0
2017-01-25T04:52:07.915Z,0
2017-01-25T04:53:18.617Z,0
2017-01-25T04:54:29.332Z,0
2017-01-25T04:55:40.061Z,0
2017-01-25T04:56:50.790Z,0
2017-01-25T04:58:01.540Z,0
2017-01-25T04:59:12.258Z,0
2017-01-25T05:00:23.008Z,0
2017-01-25T05:01:33.761Z,0
2017-01-25T05:02:44.707Z,0
2017-01-25T05:03:55.450Z,0
2017-01-25T05:05:06.176Z,0
2017-01-25T05:06:16.897Z,0
2017-01-25T05:07:27.604Z,0
2017-01-25T05:08:38.327Z,0
2017-01-25T05:09:49.060Z,0
2017-01-25T05:10:59.797Z,0
2017-01-25T05:12:10.543Z,0
2017-01-25T05:13:21.259Z,0
2017-01-25T05:14:31.982Z,0
2017-01-25T05:15:42.709Z,0
2017-01-25T05:16:53.416Z,0
2017-01-25T05:18:04.136Z,0
2017-01-25T05:19:14.878Z,0
2017-01-25T05:20:25.844Z,0
2017-01-25T05:21:36.582Z,0
2017-01-25T05:22:47.307Z,0
2017-01-25T05:23:58.036Z,0
2017-01-25T05:25:08.753Z,0
2017-01-25T05:26:19.495Z,0
2017-01-25T05:27:30.221Z,0
2017-01-25T05:28:40.940Z,0
2017-01-25T05:29:51.641Z,0
2017-01-25T05:31:02.358Z,0
2017-01-25T05:32:13.099Z,0
2017-01-25T05:33:23.830Z,0
2017-01-25T05:34:34.548Z,0
2017-01-25T05:35:45.270Z,0
2017-01-25T05:36:55.990Z,0
2017-01-25T05:38:06.712Z,0
2017-01-25T05:39:17.451Z,0
2017-01-25T05:40:28.174Z,0
2017-01-25T05:41:38.896Z,0
2017-01-25T05:42:50.008Z,0
2017-01-25T05:44:00.709Z,0
2017-01-25T05:45:11.449Z,0
2017-01-25T05:46:22.159Z,0
2017-01-25T05:47:32.860Z,0
2017-01-25T05:48:43.571Z,0
2017-01-25T05:49:54.568Z,0
2017-01-25T05:51:05.292Z,0
2017-01-25T05:52:16.037Z,0
2017-01-25T05:53:26.759Z,0
2017-01-25T05:54:37.496Z,0
2017-01-25T05:55:48.203Z,0
2017-01-25T05:56:58.925Z,0
2017-01-25T05:58:09.661Z,0
2017-01-25T05:59:20.407Z,0
2017-01-25T06:00:31.131Z,0
2017-01-25T06:01:42.079Z,0
2017-01-25T06:02:52.816Z,0
2017-01-25T06:04:03.527Z,0
2017-01-25T06:05:14.258Z,0
2017-01-25T06:06:24.966Z,0
2017-01-25T06:07:35.689Z,0
2017-01-25T06:08:46.428Z,0
2017-01-25T06:09:57.134Z,0
2017-01-25T06:11:07.842Z,0
2017-01-25T06:12:18.946Z,0
2017-01-25T06:13:29.655Z,0
2017-01-25T06:14:40.362Z,0
2017-01-25T06:15:51.099Z,0
2017-01-25T06:17:01.821Z,0
2017-01-25T06:18:12.525Z,0
2017-01-25T06:19:23.563Z,0
2017-01-25T06:20:34.313Z,0
2017-01-25T06:21:45.039Z,0
2017-01-25T06:22:56.197Z,0
2017-01-25T06:24:06.927Z,0
2017-01-25T06:25:17.647Z,0
2017-01-25T06:26:28.389Z,0
2017-01-25T06:27:39.089Z,0
2017-01-25T06:28:49.789Z,0
2017-01-25T06:30:00.536Z,0
2017-01-25T06:31:11.256Z,0
2017-01-25T06:32:21.976Z,0
2017-01-25T06:33:32.698Z,0
2017-01-25T06:34:43.437Z,0
2017-01-25T06:35:54.213Z,0
2017-01-25T06:37:05.205Z,0
2017-01-25T06:38:16.333Z,0
2017-01-25T06:39:27.057Z,0
2017-01-25T06:40:37.788Z,0
2017-01-25T06:41:48.521Z,0
2017-01-25T06:42:59.230Z,0
2017-01-25T06:44:09.978Z,0
2017-01-25T06:45:20.681Z,0
2017-01-25T06:46:31.396Z,0
2017-01-25T06:47:42.126Z,0
2017-01-25T06:48:52.848Z,0
2017-01-25T06:50:03.556Z,5
2017-01-25T06:51:14.312Z,5
2017-01-25T06:52:25.012Z,5
2017-01-25T06:53:35.710Z,5
2017-01-25T06:54:46.440Z,5
2017-01-25T06:55:57.189Z,5
2017-01-25T06:57:07.923Z,5
2017-01-25T06:58:18.652Z,5
2017-01-25T06:59:29.400Z,5
2017-01-25T07:00:40.373Z,5
2017-01-25T07:01:51.104Z,10
2017-01-25T07:03:01.819Z,10
2017-01-25T07:04:12.546Z,10
2017-01-25T07:05:23.267Z,10
2017-01-25T07:06:33.983Z,10
2017-01-25T07:07:44.709Z,15
2017-01-25T07:08:55.442Z,15
2017-01-25T07:10:06.173Z,15
2017-01-25T07:11:16.911Z,15
2017-01-25T07:12:27.683Z,15
2017-01-25T07:13:38.409Z,20
2017-01-25T07:14:49.150Z,20
2017-01-25T07:15:59.893Z,20
2017-01-25T07:17:10.653Z,20
2017-01-25T07:18:21.623Z,20
2017-01-25T07:19:32.372Z,20
2017-01-25T07:20:43.092Z,25
2017-01-25T07:21:53.835Z,25
2017-01-25T07:23:04.572Z,25
2017-01-25T07:24:15.319Z,25
2017-01-25T07:25:26.047Z,25
2017-01-25T07:26:36.741Z,25
2017-01-25T07:27:47.437Z,30
2017-01-25T07:28:58.135Z,30
2017-01-25T07:30:08.856Z,30
2017-01-25T07:31:19.555Z,35
2017-01-25T07:32:30.276Z,35
2017-01-25T07:33:41.008Z,40
2017-01-25T07:34:51.763Z,40
2017-01-25T07:36:02.529Z,40
2017-01-25T07:37:13.281Z,40
2017-01-25T07:38:23.981Z,45
2017-01-25T07:39:34.706Z,45
2017-01-25T07:40:45.488Z,40
2017-01-25T07:41:56.484Z,45
2017-01-25T07:43:07.206Z,45
2017-01-25T07:44:17.951Z,45
2017-01-25T07:45:28.668Z,45
2017-01-25T07:46:39.407Z,45
2017-01-25T07:47:50.147Z,45
2017-01-25T07:49:00.868Z,45
2017-01-25T07:50:11.987Z,45
2017-01-25T07:51:22.726Z,50
2017-01-25T07:52:33.427Z,50
2017-01-25T07:53:45.040Z,50
2017-01-25T07:54:55.761Z,55
2017-01-25T07:56:06.494Z,65
2017-01-25T07:57:17.232Z,65
2017-01-25T07:58:27.961Z,65
2017-01-25T07:59:38.934Z,65
2017-01-25T08:00:49.653Z,65
2017-01-25T08:02:00.376Z,65
2017-01-25T08:03:11.095Z,65
2017-01-25T08:04:21.790Z,70
2017-01-25T08:05:32.525Z,70
2017-01-25T08:06:43.254Z,65
2017-01-25T08:07:53.982Z,65
2017-01-25T08:09:04.726Z,70
2017-01-25T08:10:15.423Z,70
2017-01-25T08:11:26.142Z,65
2017-01-25T08:12:36.861Z,65
2017-01-25T08:13:47.579Z,65
2017-01-25T08:14:58.306Z,70
2017-01-25T08:16:09.024Z,75
2017-01-25T08:17:19.738Z,75
2017-01-25T08:18:30.471Z,80
2017-01-25T08:19:41.205Z,85
2017-01-25T08:20:51.934Z,85
2017-01-25T08:22:02.673Z,90
2017-01-25T08:23:13.426Z,90
2017-01-25T08:24:24.139Z,90
2017-01-25T08:25:34.870Z,100
2017-01-25T08:26:45.589Z,100
2017-01-25T08:27:56.299Z,105
2017-01-25T08:29:07.054Z,105
2017-01-25T08:30:17.777Z,115
2017-01-25T08:31:28.473Z,120
2017-01-25T08:32:39.211Z,130
2017-01-25T08:33:49.928Z,130
2017-01-25T08:35:00.631Z,130
2017-01-25T08:36:11.354Z,125
2017-01-25T08:37:22.076Z,120
2017-01-25T08:38:32.816Z,125
2017-01-25T08:39:43.562Z,130
2017-01-25T08:40:54.537Z,130
2017-01-25T08:42:05.234Z,125
2017-01-25T08:43:15.973Z,125
2017-01-25T08:44:26.682Z,125
2017-01-25T08:45:37.402Z,125
2017-01-25T08:46:48.121Z,125
2017-01-25T08:47:58.866Z,125
2017-01-25T08:49:09.601Z,130
2017-01-25T08:50:20.355Z,125
2017-01-25T08:51:31.068Z,120
2017-01-25T08:52:41.773Z,125
2017-01-25T08:53:52.502Z,130
2017-01-25T08:55:03.215Z,135
2017-01-25T08:56:13.960Z,135
2017-01-25T08:57:24.676Z,145
2017-01-25T08:58:35.627Z,150
2017-01-25T08:59:46.372Z,150
2017-01-25T09:00:57.090Z,145
2017-01-25T09:02:07.836Z,145
2017-01-25T09:03:18.566Z,140
2017-01-25T09:04:29.302Z,140
2017-01-25T09:05:40.028Z,140
2017-01-25T09:06:50.752Z,145
2017-01-25T09:08:01.471Z,145
2017-01-25T09:09:12.183Z,145
2017-01-25T09:10:22.962Z,140
2017-01-25T09:11:33.660Z,140
2017-01-25T09:12:44.383Z,135
2017-01-25T09:13:55.101Z,130
2017-01-25T09:15:05.838Z,140
2017-01-25T09:16:16.546Z,140
2017-01-25T09:17:27.284Z,150
2017-01-25T09:18:37.983Z,150
2017-01-25T09:19:49.101Z,155
2017-01-25T09:20:59.819Z,155
2017-01-25T09:22:10.547Z,150
2017-01-25T09:23:21.288Z,145
2017-01-25T09:24:32.030Z,145
2017-01-25T09:25:42.751Z,155
2017-01-25T09:26:53.480Z,165
2017-01-25T09:28:04.185Z,150
2017-01-25T09:29:14.981Z,130
2017-01-25T09:30:25.699Z,130
2017-01-25T09:31:36.460Z,135
2017-01-25T09:32:47.186Z,135
2017-01-25T09:33:57.913Z,130
2017-01-25T09:35:08.670Z,135
2017-01-25T09:36:19.791Z,130
2017-01-25T09:37:30.516Z,130
2017-01-25T09:38:41.249Z,125
2017-01-25T09:39:52.237Z,125
2017-01-25T09:41:02.979Z,130
2017-01-25T09:42:13.725Z,130
2017-01-25T09:43:24.467Z,130
2017-01-25T09:44:35.221Z,135
2017-01-25T09:45:45.921Z,140
2017-01-25T09:46:56.644Z,140
2017-01-25T09:48:07.364Z,145
2017-01-25T09:49:18.120Z,145
2017-01-25T09:50:28.858Z,140
2017-01-25T09:51:39.589Z,145
2017-01-25T09:52:50.321Z,150
2017-01-25T09:54:01.057Z,155
2017-01-25T09:55:11.802Z,155
2017-01-25T09:56:22.552Z,155
2017-01-25T09:57:33.284Z,160
2017-01-25T09:58:44.015Z,165
2017-01-25T09:59:54.719Z,170
2017-01-25T10:01:05.445Z,165
2017-01-25T10:02:16.165Z,165
2017-01-25T10:03:26.903Z,175
2017-01-25T10:04:37.625Z,175
2017-01-25T10:05:48.374Z,190
2017-01-25T10:06:59.095Z,195
2017-01-25T10:08:09.835Z,190
2017-01-25T10:09:20.583Z,190
2017-01-25T10:10:31.305Z,185
2017-01-25T10:11:42.037Z,195
2017-01-25T10:12:52.754Z,195
2017-01-25T10:14:03.473Z,190
2017-01-25T10:15:14.209Z,185
2017-01-25T10:16:24.931Z,190
2017-01-25T10:17:35.645Z,200
2017-01-25T10:18:46.359Z,200
2017-01-25T10:19:57.094Z,210
2017-01-25T10:21:07.840Z,215
2017-01-25T10:22:18.585Z,215
2017-01-25T10:23:29.296Z,220
2017-01-25T10:24:40.027Z,230
2017-01-25T10:25:50.748Z,215
2017-01-25T10:27:01.435Z,220
2017-01-25T10:28:12.177Z,210
2017-01-25T10:29:22.887Z,205
2017-01-25T10:30:33.620Z,205
2017-01-25T10:31:44.367Z,210
2017-01-25T10:32:55.086Z,205
2017-01-25T10:34:05.832Z,200
2017-01-25T10:35:16.578Z,195
2017-01-25T10:36:27.316Z,195
2017-01-25T10:37:38.058Z,200
2017-01-25T10:38:49.042Z,210
2017-01-25T10:39:59.762Z,225
2017-01-25T10:41:10.479Z,210
2017-01-25T10:42:21.245Z,215
2017-01-25T10:43:31.963Z,225
2017-01-25T10:44:42.721Z,230
2017-01-25T10:45:53.442Z,210
2017-01-25T10:47:04.162Z,200
2017-01-25T10:48:14.907Z,210
2017-01-25T10:49:25.619Z,215
2017-01-25T10:50:36.324Z,215
2017-01-25T10:51:47.046Z,205
2017-01-25T10:52:57.767Z,210
2017-01-25T10:54:08.481Z,210
2017-01-25T10:55:19.189Z,210
2017-01-25T10:56:29.933Z,210
2017-01-25T10:57:40.648Z,210
2017-01-25T10:58:51.360Z,215
2017-01-25T11:00:02.095Z,215
2017-01-25T11:01:12.832Z,215
2017-01-25T11:02:23.559Z,215
2017-01-25T11:03:34.306Z,210
2017-01-25T11:04:45.027Z,210
2017-01-25T11:05:55.766Z,210
2017-01-25T11:07:06.511Z,205
2017-01-25T11:08:17.241Z,205
2017-01-25T11:09:27.986Z,210
2017-01-25T11:10:38.728Z,210
2017-01-25T11:11:49.467Z,205
2017-01-25T11:13:00.216Z,210
2017-01-25T11:14:10.919Z,210
2017-01-25T11:15:21.638Z,215
2017-01-25T11:16:32.378Z,220
2017-01-25T11:17:43.104Z,215
2017-01-25T11:18:53.852Z,210
2017-01-25T11:20:04.803Z,210
2017-01-25T11:21:15.498Z,215
2017-01-25T11:22:26.242Z,210
2017-01-25T11:23:36.961Z,210
2017-01-25T11:24:47.687Z,220
2017-01-25T11:25:58.434Z,210
2017-01-25T11:27:09.152Z,195
2017-01-25T11:28:19.868Z,215
2017-01-25T11:29:30.618Z,235
2017-01-25T11:30:41.357Z,215
2017-01-25T11:31:52.059Z,215
2017-01-25T11:33:02.783Z,220
2017-01-25T11:34:13.514Z,225
2017-01-25T11:35:24.247Z,215
2017-01-25T11:36:34.986Z,205
2017-01-25T11:37:45.978Z,215
2017-01-25T11:38:56.728Z,215
2017-01-25T11:40:07.427Z,205
2017-01-25T11:41:18.149Z,210
2017-01-25T11:42:28.887Z,210
2017-01-25T11:43:39.634Z,205
2017-01-25T11:44:50.382Z,205
2017-01-25T11:46:01.125Z,210
2017-01-25T11:47:11.834Z,210
2017-01-25T11:48:22.551Z,200
2017-01-25T11:49:33.290Z,210
2017-01-25T11:50:44.022Z,210
2017-01-25T11:51:54.741Z,210
2017-01-25T11:53:05.460Z,215
2017-01-25T11:54:16.206Z,210
2017-01-25T11:55:26.946Z,195
2017-01-25T11:56:37.700Z,195
2017-01-25T11:57:48.424Z,195
2017-01-25T11:58:59.148Z,205
2017-01-25T12:00:10.263Z,200
2017-01-25T12:01:21.233Z,200
2017-01-25T12:02:31.971Z,200
2017-01-25T12:03:42.723Z,195
2017-01-25T12:04:53.440Z,195
2017-01-25T12:06:04.189Z,190
2017-01-25T12:07:14.892Z,185
2017-01-25T12:08:25.625Z,195
2017-01-25T12:09:36.375Z,185
2017-01-25T12:10:47.105Z,175
2017-01-25T12:11:57.848Z,185
2017-01-25T12:13:08.547Z,185
2017-01-25T12:14:19.282Z,185
2017-01-25T12:15:30.036Z,185
2017-01-25T12:16:40.740Z,190
2017-01-25T12:17:51.491Z,190
2017-01-25T12:19:02.250Z,195
2017-01-25T12:20:12.994Z,200
2017-01-25T12:21:23.706Z,195
2017-01-25T12:22:34.434Z,200
2017-01-25T12:23:45.171Z,200
2017-01-25T12:24:55.895Z,200
2017-01-25T12:26:06.624Z,200
2017-01-25T12:27:17.387Z,210
2017-01-25T12:28:28.093Z,220
2017-01-25T12:29:38.816Z,225
2017-01-25T12:30:49.530Z,225
2017-01-25T12:32:00.257Z,225
2017-01-25T12:33:10.977Z,210
2017-01-25T12:34:21.699Z,210
2017-01-25T12:35:32.430Z,215
2017-01-25T12:36:43.155Z,220
2017-01-25T12:37:53.897Z,220
2017-01-25T12:39:04.652Z,210
2017-01-25T12:40:15.374Z,220
2017-01-25T12:41:26.078Z,230
2017-01-25T12:42:36.814Z,225
2017-01-25T12:43:47.563Z,220
2017-01-25T12:44:58.281Z,225
2017-01-25T12:46:09.020Z,220
2017-01-25T12:47:19.755Z,215
2017-01-25T12:48:30.468Z,205
2017-01-25T12:49:41.193Z,200
2017-01-25T12:50:51.912Z,200
2017-01-25T12:52:02.611Z,200
2017-01-25T12:53:13.358Z,210
2017-01-25T12:54:24.120Z,215
2017-01-25T12:55:34.870Z,210
2017-01-25T12:56:45.593Z,205
2017-01-25T12:57:56.311Z,210
2017-01-25T12:59:07.033Z,205
2017-01-25T13:00:17.784Z,205
2017-01-25T13:01:28.499Z,210
2017-01-25T13:02:39.250Z,205
2017-01-25T13:03:49.987Z,190
2017-01-25T13:05:00.692Z,190
2017-01-25T13:06:11.439Z,195
2017-01-25T13:07:22.176Z,195
2017-01-25T13:08:32.901Z,195
2017-01-25T13:09:43.596Z,180
2017-01-25T13:10:54.335Z,170
2017-01-25T13:12:05.047Z,175
2017-01-25T13:13:15.781Z,185
2017-01-25T13:14:26.524Z,175
2017-01-25T13:15:37.282Z,160
2017-01-25T13:16:48.004Z,160
2017-01-25T13:17:58.719Z,170
2017-01-25T13:19:09.464Z,175
2017-01-25T13:20:20.166Z,165
2017-01-25T13:21:30.903Z,165
2017-01-25T13:22:41.606Z,170
2017-01-25T13:23:52.345Z,165
2017-01-25T13:25:03.088Z,170
2017-01-25T13:26:13.807Z,170
2017-01-25T13:27:24.581Z,165
2017-01-25T13:28:35.301Z,165
2017-01-25T13:29:46.033Z,165
2017-01-25T13:30:56.773Z,170
2017-01-25T13:32:07.503Z,165
2017-01-25T13:33:18.250Z,160
2017-01-25T13:34:28.969Z,155
2017-01-25T13:35:39.702Z,160
2017-01-25T13:36:50.406Z,160
2017-01-25T13:38:01.149Z,170
2017-01-25T13:39:11.897Z,175
2017-01-25T13:40:22.611Z,175
2017-01-25T13:41:33.332Z,175
2017-01-25T13:42:44.068Z,165
2017-01-25T13:43:54.807Z,165
2017-01-25T13:45:05.535Z,165
2017-01-25T13:46:16.270Z,165
2017-01-25T13:47:27.016Z,160
2017-01-25T13:48:37.746Z,155
2017-01-25T13:49:48.447Z,160
2017-01-25T13:50:59.179Z,155
2017-01-25T13:52:10.289Z,155
2017-01-25T13:53:21.018Z,155
2017-01-25T13:54:31.750Z,155
2017-01-25T13:55:42.496Z,150
2017-01-25T13:56:53.260Z,150
2017-01-25T13:58:04.008Z,145
2017-01-25T13:59:14.983Z,135
2017-01-25T14:00:25.706Z,135
2017-01-25T14:01:36.429Z,135
2017-01-25T14:02:47.148Z,125
2017-01-25T14:03:57.887Z,115
2017-01-25T14:05:08.603Z,105
2017-01-25T14:06:19.351Z,115
2017-01-25T14:07:30.097Z,110
2017-01-25T14:08:40.827Z,110
2017-01-25T14:09:51.563Z,110
2017-01-25T14:11:02.294Z,110
2017-01-25T14:12:13.015Z,110
2017-01-25T14:13:23.734Z,110
2017-01-25T14:14:34.481Z,115
2017-01-25T14:15:45.193Z,115
2017-01-25T14:16:56.170Z,110
2017-01-25T14:18:06.901Z,110
2017-01-25T14:19:17.636Z,110
2017-01-25T14:20:28.367Z,115
2017-01-25T14:21:39.081Z,115
2017-01-25T14:22:49.777Z,115
2017-01-25T14:24:00.503Z,110
2017-01-25T14:25:11.641Z,110
2017-01-25T14:26:22.384Z,110
2017-01-25T14:27:33.115Z,115
2017-01-25T14:28:43.830Z,120
2017-01-25T14:29:54.579Z,115
2017-01-25T14:31:05.277Z,110
2017-01-25T14:32:15.993Z,105
2017-01-25T14:33:26.729Z,105
2017-01-25T14:34:37.464Z,105
2017-01-25T14:35:48.202Z,100
2017-01-25T14:36:58.911Z,100
2017-01-25T14:38:09.645Z,95
2017-01-25T14:39:20.379Z,85
2017-01-25T14:40:31.095Z,85
2017-01-25T14:41:41.823Z,95
2017-01-25T14:42:52.536Z,95
2017-01-25T14:44:03.263Z,90
2017-01-25T14:45:13.995Z,85
2017-01-25T14:46:24.724Z,85
2017-01-25T14:47:35.452Z,85
2017-01-25T14:48:46.167Z,80
2017-01-25T14:49:56.909Z,75
2017-01-25T14:51:07.609Z,75
2017-01-25T14:52:18.307Z,70
2017-01-25T14:53:29.043Z,65
2017-01-25T14:54:39.751Z,65
2017-01-25T14:55:50.467Z,65
2017-01-25T14:57:01.185Z,60
2017-01-25T14:58:11.928Z,60
2017-01-25T14:59:22.652Z,55
2017-01-25T15:00:33.362Z,50
2017-01-25T15:01:44.097Z,50
2017-01-25T15:02:54.818Z,45
2017-01-25T15:04:05.536Z,45
2017-01-25T15:05:16.544Z,40
2017-01-25T15:06:27.286Z,40
2017-01-25T15:07:38.000Z,40
2017-01-25T15:08:48.727Z,35
2017-01-25T15:09:59.447Z,35
2017-01-25T15:11:10.158Z,35
2017-01-25T15:12:20.888Z,30
2017-01-25T15:13:31.609Z,30
2017-01-25T15:14:42.325Z,30
2017-01-25T15:15:53.031Z,25
2017-01-25T15:17:03.999Z,30
2017-01-25T15:18:14.720Z,25
2017-01-25T15:19:25.441Z,25
2017-01-25T15:20:36.180Z,25
2017-01-25T15:21:46.907Z,25
2017-01-25T15:22:57.647Z,20
2017-01-25T15:24:08.382Z,20
2017-01-25T15:25:19.113Z,20
2017-01-25T15:26:29.883Z,20
2017-01-25T15:27:40.611Z,15
2017-01-25T15:28:51.362Z,15
2017-01-25T15:30:02.109Z,15
2017-01-25T15:31:12.845Z,15
2017-01-25T15:32:23.586Z,10
2017-01-25T15:33:34.337Z,10
2017-01-25T15:34:45.062Z,10
2017-01-25T15:35:55.761Z,10
2017-01-25T15:37:06.462Z,10
2017-01-25T15:38:17.178Z,10
2017-01-25T15:39:27.913Z,5
2017-01-25T15:40:38.621Z,5
2017-01-25T15:41:49.320Z,5
2017-01-25T15:43:00.033Z,5
2017-01-25T15:44:10.764Z,5
2017-01-25T15:45:21.493Z,5
2017-01-25T15:46:32.227Z,0
2017-01-25T15:47:43.346Z,0
2017-01-25T15:48:54.041Z,0
2017-01-25T15:50:04.755Z,0
2017-01-25T15:51:15.487Z,0
2017-01-25T15:52:26.251Z,0
2017-01-25T15:53:36.975Z,0
2017-01-25T15:54:47.698Z,0
2017-01-25T15:55:58.432Z,0
2017-01-25T15:57:09.189Z,0
2017-01-25T15:58:19.906Z,0
2017-01-25T15:59:30.624Z,0
2017-01-25T16:00:41.350Z,0
2017-01-25T16:01:52.075Z,0
2017-01-25T16:03:02.816Z,0
2017-01-25T16:04:13.511Z,0
2017-01-25T16:05:24.234Z,0
2017-01-25T16:06:34.957Z,0
2017-01-25T16:07:45.683Z,0
2017-01-25T16:08:56.371Z,0
2017-01-25T16:10:07.109Z,0
2017-01-25T16:11:17.817Z,0
2017-01-25T16:12:28.536Z,0
2017-01-25T16:13:39.247Z,0
2017-01-25T16:14:49.972Z,0
2017-01-25T16:16:00.697Z,0
2017-01-25T16:17:11.423Z,0
2017-01-25T16:18:22.143Z,0
2017-01-25T16:19:32.865Z,0
2017-01-25T16:20:43.584Z,0
2017-01-25T16:21:54.532Z,0
2017-01-25T16:23:05.276Z,0
2017-01-25T16:24:15.986Z,0
2017-01-25T16:25:26.735Z,0
2017-01-25T16:26:37.457Z,0
2017-01-25T16:27:48.191Z,0
2017-01-25T16:28:58.906Z,0
2017-01-25T16:30:09.629Z,0
2017-01-25T16:31:20.345Z,0
2017-01-25T16:32:31.066Z,0
2017-01-25T16:33:41.793Z,0
2017-01-25T16:34:52.557Z,0
2017-01-25T16:36:03.296Z,0
2017-01-25T16:37:14.010Z,0
2017-01-25T16:38:25.126Z,0
2017-01-25T16:39:35.818Z,0
2017-01-25T16:40:46.539Z,0
2017-01-25T16:41:57.265Z,0
2017-01-25T16:43:08.360Z,0
2017-01-25T16:44:19.096Z,0
2017-01-25T16:45:29.799Z,0
2017-01-25T16:46:40.493Z,0
2017-01-25T16:47:51.192Z,0
2017-01-25T16:49:01.937Z,0
2017-01-25T16:50:12.675Z,0
2017-01-25T16:51:23.428Z,0
2017-01-25T16:52:34.164Z,0
2017-01-25T16:53:44.912Z,0